Gilbert Plains, Canada
Current Conditions -  °F | °C
As of 10:40 PM on Monday 20 Oct 2014 (Local Time) from CYDN Reporting Station
Haze Haze  
Wind Chill: 32°   Ceiling: Unl
Heat Index: 36°   Visibility: 5mi
Dew Point: 34°   Wind: 5mph
Humidity: 93%   Direction: 320°NW
Pressure: 29.88"   Gusts: NA
Location:  51.13°N, 100.48°W
Report Text: CYDN 210340Z AUTO 32004KT 5SM BR CLR 02/01 A2988 RMK SLP133
Loading
Personal Weather Stations






























Interactive Weather Map
Tropical Storm Tracking
New forecast layout! Learn more

10-Day Weather Forecast

Advertisements
Track Severe Weather on mobile